sensor_id;sensor_type;location;lat;lon;timestamp;P1;durP1;ratioP1;P2;durP2;ratioP2
12770;SDS011;6449;47.666;9.160;2022-12-28T00:01:08;11.10;;;7.20;;
12770;SDS011;6449;47.666;9.160;2022-12-28T00:06:04;7.53;;;6.27;;
12770;SDS011;6449;47.666;9.160;2022-12-28T00:10:59;7.00;;;5.40;;
12770;SDS011;6449;47.666;9.160;2022-12-28T00:16:05;6.40;;;5.23;;
12770;SDS011;6449;47.666;9.160;2022-12-28T00:21:02;6.77;;;5.40;;
12770;SDS011;6449;47.666;9.160;2022-12-28T00:26:03;7.30;;;4.57;;
12770;SDS011;6449;47.666;9.160;2022-12-28T00:30:58;6.83;;;5.43;;
12770;SDS011;6449;47.666;9.160;2022-12-28T00:35:53;6.83;;;5.20;;
12770;SDS011;6449;47.666;9.160;2022-12-28T00:40:47;5.87;;;4.80;;
12770;SDS011;6449;47.666;9.160;2022-12-28T00:45:42;8.13;;;5.20;;
12770;SDS011;6449;47.666;9.160;2022-12-28T00:55:50;5.63;;;4.73;;
12770;SDS011;6449;47.666;9.160;2022-12-28T01:00:43;7.60;;;5.47;;
12770;SDS011;6449;47.666;9.160;2022-12-28T01:05:37;10.20;;;7.13;;
12770;SDS011;6449;47.666;9.160;2022-12-28T01:15:38;9.37;;;6.60;;
12770;SDS011;6449;47.666;9.160;2022-12-28T01:20:31;11.57;;;7.57;;
12770;SDS011;6449;47.666;9.160;2022-12-28T01:25:25;8.57;;;7.53;;
12770;SDS011;6449;47.666;9.160;2022-12-28T01:30:18;8.80;;;7.57;;
12770;SDS011;6449;47.666;9.160;2022-12-28T01:35:13;10.67;;;8.20;;
12770;SDS011;6449;47.666;9.160;2022-12-28T01:45:15;10.30;;;7.80;;
12770;SDS011;6449;47.666;9.160;2022-12-28T01:50:11;7.67;;;5.53;;
12770;SDS011;6449;47.666;9.160;2022-12-28T01:55:12;7.60;;;6.23;;
12770;SDS011;6449;47.666;9.160;2022-12-28T02:00:11;8.83;;;6.57;;
12770;SDS011;6449;47.666;9.160;2022-12-28T02:05:07;9.80;;;6.63;;
12770;SDS011;6449;47.666;9.160;2022-12-28T02:10:04;7.77;;;6.57;;
12770;SDS011;6449;47.666;9.160;2022-12-28T02:15:19;8.87;;;6.60;;
12770;SDS011;6449;47.666;9.160;2022-12-28T02:20:13;7.07;;;6.17;;
12770;SDS011;6449;47.666;9.160;2022-12-28T02:30:52;7.83;;;6.60;;
12770;SDS011;6449;47.666;9.160;2022-12-28T02:35:56;11.20;;;7.53;;
12770;SDS011;6449;47.666;9.160;2022-12-28T02:40:57;10.90;;;7.97;;
12770;SDS011;6449;47.666;9.160;2022-12-28T02:56:25;12.73;;;9.30;;
12770;SDS011;6449;47.666;9.160;2022-12-28T03:01:37;14.53;;;9.60;;
12770;SDS011;6449;47.666;9.160;2022-12-28T03:06:52;12.03;;;9.20;;
12770;SDS011;6449;47.666;9.160;2022-12-28T03:12:21;14.43;;;10.97;;
12770;SDS011;6449;47.666;9.160;2022-12-28T03:17:21;18.73;;;11.17;;
12770;SDS011;6449;47.666;9.160;2022-12-28T03:22:42;14.37;;;10.40;;
12770;SDS011;6449;47.666;9.160;2022-12-28T03:27:56;35.67;;;10.40;;
12770;SDS011;6449;47.666;9.160;2022-12-28T03:33:09;38.30;;;10.33;;
12770;SDS011;6449;47.666;9.160;2022-12-28T03:38:04;25.37;;;12.30;;
12770;SDS011;6449;47.666;9.160;2022-12-28T03:43:01;19.37;;;10.53;;
12770;SDS011;6449;47.666;9.160;2022-12-28T03:48:19;17.40;;;11.60;;
12770;SDS011;6449;47.666;9.160;2022-12-28T03:59:47;18.93;;;12.60;;
12770;SDS011;6449;47.666;9.160;2022-12-28T04:46:31;70.67;;;13.13;;
12770;SDS011;6449;47.666;9.160;2022-12-28T04:51:26;82.60;;;13.07;;
12770;SDS011;6449;47.666;9.160;2022-12-28T04:56:21;54.47;;;12.10;;
12770;SDS011;6449;47.666;9.160;2022-12-28T05:06:11;118.17;;;13.63;;
12770;SDS011;6449;47.666;9.160;2022-12-28T05:21:11;81.60;;;12.57;;
12770;SDS011;6449;47.666;9.160;2022-12-28T05:48:47;122.23;;;12.53;;
12770;SDS011;6449;47.666;9.160;2022-12-28T05:53:40;66.90;;;10.00;;
12770;SDS011;6449;47.666;9.160;2022-12-28T05:58:34;96.63;;;11.57;;
12770;SDS011;6449;47.666;9.160;2022-12-28T06:03:27;50.40;;;10.93;;
12770;SDS011;6449;47.666;9.160;2022-12-28T06:08:22;45.27;;;10.43;;
12770;SDS011;6449;47.666;9.160;2022-12-28T06:28:36;68.53;;;12.30;;
12770;SDS011;6449;47.666;9.160;2022-12-28T06:33:31;123.93;;;14.03;;
12770;SDS011;6449;47.666;9.160;2022-12-28T06:38:26;123.53;;;14.30;;
12770;SDS011;6449;47.666;9.160;2022-12-28T06:43:22;43.17;;;12.07;;
12770;SDS011;6449;47.666;9.160;2022-12-28T06:48:17;43.67;;;11.70;;
12770;SDS011;6449;47.666;9.160;2022-12-28T06:53:10;56.40;;;11.13;;
12770;SDS011;6449;47.666;9.160;2022-12-28T06:58:04;55.87;;;11.50;;
12770;SDS011;6449;47.666;9.160;2022-12-28T07:02:57;62.17;;;11.00;;
12770;SDS011;6449;47.666;9.160;2022-12-28T07:07:52;93.17;;;12.07;;
12770;SDS011;6449;47.666;9.160;2022-12-28T07:12:45;62.97;;;11.80;;
12770;SDS011;6449;47.666;9.160;2022-12-28T07:17:39;71.00;;;12.20;;
12770;SDS011;6449;47.666;9.160;2022-12-28T07:22:32;29.43;;;11.17;;
12770;SDS011;6449;47.666;9.160;2022-12-28T07:27:27;32.33;;;10.23;;
12770;SDS011;6449;47.666;9.160;2022-12-28T07:32:20;71.53;;;12.67;;
12770;SDS011;6449;47.666;9.160;2022-12-28T07:37:14;84.40;;;12.30;;
12770;SDS011;6449;47.666;9.160;2022-12-28T07:42:07;43.27;;;11.80;;
12770;SDS011;6449;47.666;9.160;2022-12-28T07:47:03;119.07;;;13.53;;
12770;SDS011;6449;47.666;9.160;2022-12-28T07:51:56;72.10;;;12.03;;
12770;SDS011;6449;47.666;9.160;2022-12-28T07:56:50;25.30;;;10.97;;
12770;SDS011;6449;47.666;9.160;2022-12-28T08:01:43;68.67;;;12.67;;
12770;SDS011;6449;47.666;9.160;2022-12-28T08:06:39;54.67;;;13.20;;
12770;SDS011;6449;47.666;9.160;2022-12-28T08:11:35;41.30;;;12.50;;
12770;SDS011;6449;47.666;9.160;2022-12-28T08:16:32;19.77;;;11.47;;
12770;SDS011;6449;47.666;9.160;2022-12-28T08:21:29;22.60;;;12.20;;
12770;SDS011;6449;47.666;9.160;2022-12-28T08:26:26;34.33;;;14.00;;
12770;SDS011;6449;47.666;9.160;2022-12-28T08:31:23;34.40;;;14.90;;
12770;SDS011;6449;47.666;9.160;2022-12-28T08:36:19;14.03;;;11.53;;
12770;SDS011;6449;47.666;9.160;2022-12-28T08:41:14;22.40;;;14.43;;
12770;SDS011;6449;47.666;9.160;2022-12-28T08:46:11;32.47;;;12.63;;
12770;SDS011;6449;47.666;9.160;2022-12-28T08:51:08;28.20;;;11.87;;
12770;SDS011;6449;47.666;9.160;2022-12-28T08:56:05;25.13;;;12.10;;
12770;SDS011;6449;47.666;9.160;2022-12-28T09:01:05;29.00;;;14.27;;
12770;SDS011;6449;47.666;9.160;2022-12-28T09:06:03;24.73;;;12.50;;
12770;SDS011;6449;47.666;9.160;2022-12-28T09:10:59;101.43;;;14.47;;
12770;SDS011;6449;47.666;9.160;2022-12-28T09:15:54;71.73;;;14.47;;
12770;SDS011;6449;47.666;9.160;2022-12-28T09:20:49;121.20;;;15.53;;
12770;SDS011;6449;47.666;9.160;2022-12-28T09:25:43;173.57;;;16.93;;
12770;SDS011;6449;47.666;9.160;2022-12-28T09:30:37;148.57;;;16.90;;
12770;SDS011;6449;47.666;9.160;2022-12-28T09:35:31;225.90;;;18.57;;
12770;SDS011;6449;47.666;9.160;2022-12-28T09:40:24;46.23;;;14.07;;
12770;SDS011;6449;47.666;9.160;2022-12-28T09:45:20;313.20;;;21.50;;
12770;SDS011;6449;47.666;9.160;2022-12-28T09:50:23;64.07;;;15.80;;
12770;SDS011;6449;47.666;9.160;2022-12-28T09:55:21;29.07;;;13.67;;
12770;SDS011;6449;47.666;9.160;2022-12-28T10:00:17;25.07;;;14.50;;
12770;SDS011;6449;47.666;9.160;2022-12-28T10:05:14;50.60;;;17.23;;
12770;SDS011;6449;47.666;9.160;2022-12-28T10:10:09;58.33;;;17.43;;
12770;SDS011;6449;47.666;9.160;2022-12-28T10:15:09;20.70;;;15.90;;
12770;SDS011;6449;47.666;9.160;2022-12-28T10:20:12;18.00;;;14.53;;
12770;SDS011;6449;47.666;9.160;2022-12-28T11:17:54;15.90;;;12.57;;
12770;SDS011;6449;47.666;9.160;2022-12-28T11:22:50;19.37;;;13.77;;
12770;SDS011;6449;47.666;9.160;2022-12-28T11:27:45;19.00;;;14.50;;
12770;SDS011;6449;47.666;9.160;2022-12-28T11:32:41;15.30;;;13.07;;
12770;SDS011;6449;47.666;9.160;2022-12-28T11:37:48;16.93;;;13.27;;
12770;SDS011;6449;47.666;9.160;2022-12-28T11:42:53;24.77;;;14.47;;
12770;SDS011;6449;47.666;9.160;2022-12-28T11:47:47;17.53;;;13.23;;
12770;SDS011;6449;47.666;9.160;2022-12-28T11:52:44;15.57;;;12.70;;
12770;SDS011;6449;47.666;9.160;2022-12-28T11:57:42;15.90;;;12.90;;
12770;SDS011;6449;47.666;9.160;2022-12-28T12:02:37;13.77;;;12.17;;
12770;SDS011;6449;47.666;9.160;2022-12-28T12:17:41;15.60;;;13.13;;
12770;SDS011;6449;47.666;9.160;2022-12-28T12:22:41;21.27;;;14.57;;
12770;SDS011;6449;47.666;9.160;2022-12-28T12:27:42;18.33;;;14.80;;
12770;SDS011;6449;47.666;9.160;2022-12-28T12:32:42;21.30;;;15.63;;
12770;SDS011;6449;47.666;9.160;2022-12-28T12:37:43;20.93;;;16.30;;
12770;SDS011;6449;47.666;9.160;2022-12-28T12:42:43;19.23;;;14.70;;
12770;SDS011;6449;47.666;9.160;2022-12-28T12:48:01;20.40;;;14.87;;
12770;SDS011;6449;47.666;9.160;2022-12-28T12:53:25;19.80;;;14.67;;
12770;SDS011;6449;47.666;9.160;2022-12-28T12:58:44;19.17;;;15.27;;
12770;SDS011;6449;47.666;9.160;2022-12-28T13:03:50;18.37;;;14.07;;
12770;SDS011;6449;47.666;9.160;2022-12-28T13:08:46;20.90;;;15.57;;
12770;SDS011;6449;47.666;9.160;2022-12-28T13:13:53;14.20;;;11.27;;
12770;SDS011;6449;47.666;9.160;2022-12-28T13:18:56;7.47;;;6.13;;
12770;SDS011;6449;47.666;9.160;2022-12-28T13:23:52;5.43;;;4.60;;
12770;SDS011;6449;47.666;9.160;2022-12-28T13:28:47;3.80;;;3.30;;
12770;SDS011;6449;47.666;9.160;2022-12-28T13:33:54;3.10;;;2.83;;
12770;SDS011;6449;47.666;9.160;2022-12-28T13:39:01;3.13;;;2.60;;
12770;SDS011;6449;47.666;9.160;2022-12-28T17:14:58;6.80;;;6.03;;
12770;SDS011;6449;47.666;9.160;2022-12-28T17:19:55;11.43;;;6.43;;
12770;SDS011;6449;47.666;9.160;2022-12-28T17:24:49;7.43;;;5.80;;
12770;SDS011;6449;47.666;9.160;2022-12-28T17:29:42;34.67;;;26.87;;
